createdAt,value
2022-11-04T00:01:54.725Z,99.81
2022-11-04T00:04:11.827Z,100.00
2022-11-04T00:06:28.836Z,100.00
2022-11-04T00:08:46.183Z,99.70
2022-11-04T00:11:03.590Z,99.93
2022-11-04T00:13:20.776Z,98.30
2022-11-04T00:15:37.891Z,96.72
2022-11-04T00:17:54.807Z,97.69
2022-11-04T00:20:13.035Z,98.25
2022-11-04T00:22:31.367Z,97.75
2022-11-04T00:24:49.939Z,97.72
2022-11-04T00:27:07.032Z,96.75
2022-11-04T00:29:25.898Z,95.96
2022-11-04T00:31:42.823Z,95.85
2022-11-04T00:33:59.689Z,96.42
2022-11-04T00:36:16.763Z,95.43
2022-11-04T00:38:36.207Z,95.17
2022-11-04T00:40:53.937Z,95.71
2022-11-04T00:43:10.925Z,95.77
2022-11-04T00:45:30.949Z,95.34
2022-11-04T00:47:48.172Z,95.90
2022-11-04T00:50:05.389Z,95.84
2022-11-04T00:52:22.783Z,95.97
2022-11-04T00:54:39.880Z,94.91
2022-11-04T00:56:57.354Z,96.16
2022-11-04T00:59:14.863Z,96.75
2022-11-04T01:01:34.170Z,97.16
2022-11-04T01:03:52.656Z,97.41
2022-11-04T01:06:09.715Z,96.36
2022-11-04T01:08:27.055Z,96.29
2022-11-04T01:10:44.354Z,97.39
2022-11-04T01:13:03.612Z,97.12
2022-11-04T01:15:20.854Z,96.24
2022-11-04T01:17:37.882Z,97.19
2022-11-04T01:19:56.145Z,95.99
2022-11-04T01:22:14.142Z,95.96
2022-11-04T01:24:32.095Z,96.64
2022-11-04T01:26:49.166Z,95.91
2022-11-04T01:29:06.854Z,96.97
2022-11-04T01:31:25.022Z,95.88
2022-11-04T01:33:42.023Z,97.25
2022-11-04T01:36:00.302Z,96.04
2022-11-04T01:38:17.209Z,95.65
2022-11-04T01:40:34.098Z,95.36
2022-11-04T01:42:51.114Z,95.33
2022-11-04T01:45:09.415Z,96.64
2022-11-04T01:47:26.384Z,96.35
2022-11-04T01:49:43.799Z,94.89
2022-11-04T01:52:00.897Z,95.05
2022-11-04T01:54:18.176Z,95.10
2022-11-04T01:56:35.198Z,96.29
2022-11-04T01:58:52.174Z,95.71
2022-11-04T02:01:09.410Z,96.79
2022-11-04T02:03:26.422Z,95.70
2022-11-04T02:05:43.659Z,95.99
2022-11-04T02:08:00.603Z,96.84
2022-11-04T02:10:17.588Z,95.87
2022-11-04T02:12:34.576Z,96.45
2022-11-04T02:14:51.546Z,96.26
2022-11-04T02:17:08.744Z,95.85
2022-11-04T02:19:25.979Z,96.24
2022-11-04T02:21:43.943Z,96.29
2022-11-04T02:24:00.849Z,95.80
2022-11-04T02:26:17.813Z,96.79
2022-11-04T02:28:34.741Z,96.79
2022-11-04T02:30:51.672Z,96.16
2022-11-04T02:33:08.863Z,96.31
2022-11-04T02:35:25.952Z,95.76
2022-11-04T02:37:42.958Z,95.88
2022-11-04T02:40:00.349Z,95.44
2022-11-04T02:42:17.338Z,95.69
2022-11-04T02:44:34.302Z,95.31
2022-11-04T02:46:51.251Z,96.45
2022-11-04T02:49:09.491Z,96.15
2022-11-04T02:51:26.680Z,95.86
2022-11-04T02:53:43.923Z,96.25
2022-11-04T02:56:01.105Z,97.37
2022-11-04T02:58:19.127Z,96.83
2022-11-04T03:00:36.350Z,96.61
2022-11-04T03:02:53.267Z,96.43
2022-11-04T03:05:10.496Z,96.94
2022-11-04T03:07:27.471Z,96.99
2022-11-04T03:09:44.489Z,97.32
2022-11-04T03:12:01.501Z,97.15
2022-11-04T03:14:18.735Z,97.51
2022-11-04T03:16:35.689Z,97.37
2022-11-04T03:18:52.706Z,97.32
2022-11-04T03:21:09.914Z,97.18
2022-11-04T03:23:26.801Z,97.62
2022-11-04T03:25:44.026Z,97.33
2022-11-04T03:28:01.001Z,96.82
2022-11-04T03:32:39.848Z,97.49
2022-11-04T03:34:56.766Z,97.55
2022-11-04T03:37:14.039Z,97.91
2022-11-04T03:39:31.036Z,98.08
2022-11-04T03:41:49.039Z,98.18
2022-11-04T03:44:06.284Z,97.98
2022-11-04T03:46:24.454Z,96.99
2022-11-04T03:48:41.531Z,97.44
2022-11-04T03:50:58.515Z,97.14
2022-11-04T03:53:15.667Z,97.20
2022-11-04T03:55:33.936Z,97.92
2022-11-04T03:57:50.936Z,97.34
2022-11-04T04:00:07.884Z,97.42
2022-11-04T04:02:24.739Z,97.98
2022-11-04T04:04:41.937Z,97.38
2022-11-04T04:06:58.963Z,98.37
2022-11-04T04:09:16.935Z,97.15
2022-11-04T04:11:33.939Z,97.06
2022-11-04T04:13:50.897Z,96.84
2022-11-04T04:16:07.938Z,97.17
2022-11-04T04:18:26.144Z,97.96
2022-11-04T04:20:43.396Z,97.47
2022-11-04T04:23:00.440Z,97.10
2022-11-04T04:25:18.453Z,98.54
2022-11-04T04:27:35.383Z,98.73
2022-11-04T04:29:52.346Z,97.49
2022-11-04T04:32:09.323Z,97.65
2022-11-04T04:34:26.539Z,98.74
2022-11-04T04:36:43.732Z,98.06
2022-11-04T04:39:00.980Z,98.67
2022-11-04T04:41:18.179Z,98.67
2022-11-04T04:43:35.162Z,97.35
2022-11-04T04:45:52.022Z,97.34
2022-11-04T04:48:09.209Z,98.43
2022-11-04T04:50:27.448Z,98.20
2022-11-04T04:52:44.411Z,97.42
2022-11-04T04:55:01.410Z,98.85
2022-11-04T04:57:18.254Z,98.49
2022-11-04T04:59:35.280Z,98.34
2022-11-04T05:01:52.358Z,97.69
2022-11-04T05:04:09.697Z,98.09
2022-11-04T05:06:26.897Z,98.88
2022-11-04T05:08:44.871Z,98.80
2022-11-04T05:11:01.859Z,98.99
2022-11-04T05:13:19.802Z,98.63
2022-11-04T05:15:37.054Z,97.99
2022-11-04T05:17:54.022Z,97.36
2022-11-04T05:20:11.331Z,97.47
2022-11-04T05:22:28.306Z,97.76
2022-11-04T05:24:45.583Z,97.40
2022-11-04T05:27:02.512Z,98.10
2022-11-04T05:29:19.558Z,98.07
2022-11-04T05:31:36.781Z,98.54
2022-11-04T05:33:54.046Z,99.14
2022-11-04T05:36:10.936Z,98.04
2022-11-04T05:38:28.188Z,97.93
2022-11-04T05:40:45.248Z,99.13
2022-11-04T05:43:02.191Z,98.99
2022-11-04T05:45:19.404Z,98.45
2022-11-04T05:47:37.375Z,98.63
2022-11-04T05:49:54.392Z,98.55
2022-11-04T05:52:11.358Z,99.42
2022-11-04T05:54:28.307Z,99.13
2022-11-04T05:56:45.215Z,98.42
2022-11-04T05:59:03.260Z,99.10
2022-11-04T06:01:20.567Z,99.85
2022-11-04T06:03:37.584Z,98.51
2022-11-04T06:05:57.076Z,98.66
2022-11-04T06:08:14.064Z,98.53
2022-11-04T06:10:31.297Z,99.16
2022-11-04T06:12:48.476Z,99.55
2022-11-04T06:15:05.773Z,100.00
2022-11-04T06:17:25.947Z,99.72
2022-11-04T06:19:42.872Z,98.38
2022-11-04T06:22:00.123Z,99.65
2022-11-04T06:24:18.412Z,98.89
2022-11-04T06:26:35.457Z,98.89
2022-11-04T06:28:52.666Z,98.62
2022-11-04T06:31:09.926Z,99.55
2022-11-04T06:33:26.926Z,98.87
2022-11-04T06:35:45.200Z,98.81
2022-11-04T06:38:02.231Z,99.95
2022-11-04T06:40:19.106Z,99.71
2022-11-04T06:42:36.118Z,100.00
2022-11-04T06:44:53.041Z,98.68
2022-11-04T06:47:10.306Z,100.00
2022-11-04T06:49:27.260Z,100.00
2022-11-04T06:51:44.128Z,100.00
2022-11-04T06:54:01.105Z,100.00
2022-11-04T06:56:18.149Z,100.00
2022-11-04T06:58:35.449Z,100.00
2022-11-04T07:00:52.753Z,100.00
2022-11-04T07:03:10.106Z,100.00
2022-11-04T07:05:27.289Z,100.00
2022-11-04T07:07:44.302Z,100.00
2022-11-04T07:10:01.231Z,100.00
2022-11-04T07:12:18.267Z,99.98
2022-11-04T07:14:35.249Z,100.00
2022-11-04T07:16:52.275Z,99.37
2022-11-04T07:19:10.576Z,100.00
2022-11-04T07:21:27.766Z,100.00
2022-11-04T07:23:44.751Z,99.64
2022-11-04T07:26:02.045Z,100.00
2022-11-04T07:28:19.051Z,100.00
2022-11-04T07:30:36.084Z,100.00
2022-11-04T07:32:53.118Z,99.75
2022-11-04T07:35:11.369Z,99.88
2022-11-04T07:37:28.358Z,100.00
2022-11-04T07:39:46.396Z,99.85
2022-11-04T07:42:03.297Z,100.00
2022-11-04T07:44:20.191Z,100.00
2022-11-04T07:46:37.429Z,100.00
2022-11-04T07:48:54.407Z,99.31
2022-11-04T07:51:11.611Z,99.12
2022-11-04T07:53:28.544Z,100.00
2022-11-04T07:55:45.766Z,99.24
2022-11-04T07:58:02.983Z,98.97
2022-11-04T08:00:20.186Z,100.00
2022-11-04T08:02:37.220Z,99.84
2022-11-04T08:04:54.553Z,98.38
2022-11-04T08:07:11.443Z,99.89
2022-11-04T08:09:28.376Z,99.73
2022-11-04T08:11:45.609Z,99.70
2022-11-04T08:14:02.910Z,99.00
2022-11-04T08:16:19.938Z,99.21
2022-11-04T08:18:36.946Z,99.27
2022-11-04T08:20:53.964Z,99.29
2022-11-04T08:23:11.267Z,99.98
2022-11-04T08:25:28.440Z,99.96
2022-11-04T08:27:45.475Z,99.99
2022-11-04T08:30:02.642Z,99.11
2022-11-04T08:32:20.627Z,99.79
2022-11-04T08:34:37.632Z,99.07
2022-11-04T08:36:54.636Z,99.14
2022-11-04T08:39:11.707Z,99.08
2022-11-04T08:41:28.650Z,99.58
2022-11-04T08:43:45.605Z,98.08
2022-11-04T08:46:02.937Z,97.26
2022-11-04T08:48:20.171Z,97.37
2022-11-04T08:50:37.413Z,96.96
2022-11-04T08:52:54.648Z,96.21
2022-11-04T08:55:11.657Z,94.90
2022-11-04T08:57:29.626Z,94.73
2022-11-04T08:59:46.606Z,94.95
2022-11-04T09:02:03.601Z,95.21
2022-11-04T09:04:20.844Z,94.96
2022-11-04T09:06:37.770Z,94.75
2022-11-04T09:08:54.997Z,94.24
2022-11-04T09:11:12.001Z,93.74
2022-11-04T09:13:29.250Z,93.37
2022-11-04T09:15:47.262Z,94.00
2022-11-04T09:18:04.277Z,93.04
2022-11-04T09:20:21.633Z,90.86
2022-11-04T09:22:43.050Z,90.56
2022-11-04T09:25:02.397Z,88.58
2022-11-04T09:27:19.401Z,89.39
2022-11-04T09:29:36.334Z,91.28
2022-11-04T09:31:53.325Z,90.43
2022-11-04T09:34:10.564Z,90.17
2022-11-04T09:36:27.563Z,90.44
2022-11-04T09:38:44.468Z,88.69
2022-11-04T09:41:03.738Z,88.17
2022-11-04T09:43:20.750Z,87.53
2022-11-04T09:45:38.028Z,86.88
2022-11-04T09:47:54.958Z,87.56
2022-11-04T09:50:11.915Z,88.63
2022-11-04T09:52:28.916Z,89.12
2022-11-04T09:54:47.445Z,90.03
2022-11-04T09:57:05.534Z,90.25
2022-11-04T09:59:22.824Z,90.26
2022-11-04T10:01:40.231Z,89.67
2022-11-04T10:03:57.269Z,89.95
2022-11-04T10:06:15.308Z,90.04
2022-11-04T10:08:37.592Z,90.05
2022-11-04T10:10:55.985Z,89.85
2022-11-04T10:13:13.223Z,89.78
2022-11-04T10:15:30.273Z,90.03
2022-11-04T10:17:47.122Z,90.51
2022-11-04T10:20:04.028Z,90.54
2022-11-04T10:22:21.066Z,90.55
2022-11-04T10:24:37.965Z,89.86
2022-11-04T10:27:00.125Z,90.19
2022-11-04T10:29:18.129Z,90.11
2022-11-04T10:31:36.242Z,90.28
2022-11-04T10:33:53.250Z,90.59
2022-11-04T10:36:11.449Z,90.20
2022-11-04T10:38:28.459Z,90.29
2022-11-04T10:40:46.487Z,90.47
2022-11-04T10:43:03.750Z,91.33
2022-11-04T10:45:20.754Z,90.78
2022-11-04T10:47:37.663Z,90.64
2022-11-04T10:50:26.391Z,90.80
2022-11-04T10:52:31.754Z,90.21
2022-11-04T10:54:48.793Z,89.47
2022-11-04T10:57:06.098Z,89.78
2022-11-04T10:59:24.116Z,90.15
2022-11-04T11:01:41.503Z,90.09
2022-11-04T11:04:00.343Z,90.53
2022-11-04T11:06:17.580Z,89.60
2022-11-04T11:08:34.610Z,88.09
2022-11-04T11:10:51.506Z,88.62
2022-11-04T11:13:08.785Z,88.80
2022-11-04T11:15:26.119Z,87.80
2022-11-04T11:17:43.391Z,85.54
2022-11-04T11:20:00.592Z,85.69
2022-11-04T11:22:17.876Z,85.44
2022-11-04T11:24:35.706Z,85.48
2022-11-04T11:26:53.005Z,86.04
2022-11-04T11:29:11.345Z,85.67
2022-11-04T11:31:28.580Z,85.91
2022-11-04T11:33:45.507Z,85.99
2022-11-04T11:36:02.449Z,86.66
2022-11-04T11:38:19.702Z,85.93
2022-11-04T11:40:43.827Z,86.25
2022-11-04T11:43:14.468Z,86.39
2022-11-04T11:45:31.542Z,86.26
2022-11-04T11:47:48.781Z,85.79
2022-11-04T11:50:05.718Z,84.75
2022-11-04T11:52:24.015Z,84.19
2022-11-04T11:54:41.010Z,84.59
2022-11-04T11:57:13.888Z,85.18
2022-11-04T12:02:09.365Z,83.29
2022-11-04T12:09:40.973Z,82.63
2022-11-04T12:11:59.282Z,82.09
2022-11-04T12:14:16.248Z,80.95
2022-11-04T12:16:35.458Z,80.43
2022-11-04T12:18:52.423Z,80.16
2022-11-04T12:21:09.754Z,82.02
2022-11-04T12:23:26.659Z,81.51
2022-11-04T12:25:43.693Z,80.82
2022-11-04T12:28:01.689Z,80.43
2022-11-04T12:30:24.034Z,80.74
2022-11-04T12:32:45.763Z,80.01
2022-11-04T12:35:03.079Z,80.78
2022-11-04T12:37:20.284Z,80.79
2022-11-04T12:39:38.527Z,80.29
2022-11-04T12:44:32.436Z,81.63
2022-11-04T12:46:49.750Z,81.11
2022-11-04T12:49:07.440Z,83.45
2022-11-04T12:51:24.550Z,83.47
2022-11-04T12:53:41.591Z,83.58
2022-11-04T12:55:58.560Z,84.50
2022-11-04T12:58:15.529Z,84.20
2022-11-04T13:00:32.458Z,84.39
2022-11-04T13:02:49.693Z,85.28
2022-11-04T13:05:06.597Z,85.75
2022-11-04T13:07:23.567Z,85.07
2022-11-04T13:09:41.608Z,84.28
2022-11-04T13:11:59.668Z,83.79
2022-11-04T13:14:16.996Z,84.70
2022-11-04T13:16:33.911Z,83.64
2022-11-04T13:18:51.181Z,83.63
2022-11-04T13:21:08.156Z,83.06
2022-11-04T13:23:26.583Z,83.04
2022-11-04T13:25:50.741Z,83.53
2022-11-04T13:28:08.623Z,81.43
2022-11-04T13:30:26.055Z,82.01
2022-11-04T13:32:43.284Z,83.50
2022-11-04T13:35:01.576Z,83.33
2022-11-04T13:37:18.845Z,83.45
2022-11-04T13:39:35.835Z,84.03
2022-11-04T13:41:53.129Z,84.18
2022-11-04T13:44:10.472Z,84.03
2022-11-04T13:46:27.486Z,84.07
2022-11-04T13:48:45.261Z,82.98
2022-11-04T13:51:03.576Z,83.33
2022-11-04T13:53:20.618Z,83.02
2022-11-04T13:55:37.629Z,82.96
2022-11-04T13:57:54.898Z,81.84
2022-11-04T14:00:12.102Z,82.52
2022-11-04T14:02:29.166Z,83.24
2022-11-04T14:04:46.072Z,82.10
2022-11-04T14:07:02.975Z,79.92
2022-11-04T14:09:19.962Z,81.32
2022-11-04T14:11:39.038Z,82.40
2022-11-04T14:13:56.321Z,82.23
2022-11-04T14:16:13.276Z,83.29
2022-11-04T14:18:30.493Z,83.47
2022-11-04T14:20:48.423Z,82.31
2022-11-04T14:23:05.706Z,82.60
2022-11-04T14:25:22.993Z,81.75
2022-11-04T14:27:40.252Z,84.12
2022-11-04T14:29:57.464Z,85.46
2022-11-04T14:32:14.625Z,86.33
2022-11-04T14:34:31.669Z,86.60
2022-11-04T14:36:48.602Z,85.54
2022-11-04T14:39:06.766Z,86.42
2022-11-04T14:41:24.054Z,86.72
2022-11-04T14:43:41.095Z,87.28
2022-11-04T14:45:57.989Z,88.12
2022-11-04T14:48:16.103Z,87.07
2022-11-04T14:50:34.494Z,88.10
2022-11-04T14:52:51.789Z,88.36
2022-11-04T14:55:08.733Z,87.19
2022-11-04T14:57:26.011Z,87.85
2022-11-04T14:59:43.297Z,87.73
2022-11-04T15:02:01.465Z,88.48
2022-11-04T15:04:18.523Z,88.83
2022-11-04T15:06:53.528Z,88.49
2022-11-04T15:09:11.641Z,88.81
2022-11-04T15:11:28.837Z,88.36
2022-11-04T15:13:46.360Z,89.45
2022-11-04T15:16:03.265Z,89.50
2022-11-04T15:18:25.544Z,89.76
2022-11-04T15:20:45.129Z,89.99
2022-11-04T15:23:02.158Z,90.79
2022-11-04T15:25:19.259Z,90.82
2022-11-04T15:27:36.140Z,91.37
2022-11-04T15:29:53.415Z,90.69
2022-11-04T15:32:10.378Z,90.74
2022-11-04T15:34:27.422Z,90.50
2022-11-04T15:36:44.475Z,90.96
2022-11-04T15:39:01.384Z,90.80
2022-11-04T15:41:18.345Z,90.64
2022-11-04T15:43:36.924Z,90.70
2022-11-04T15:45:53.998Z,90.73
2022-11-04T15:48:11.059Z,90.92
2022-11-04T15:50:28.388Z,91.38
2022-11-04T15:52:45.628Z,90.78
2022-11-04T15:55:02.671Z,90.94
2022-11-04T15:57:19.971Z,91.03
2022-11-04T15:59:37.299Z,91.50
2022-11-04T16:01:54.237Z,91.27
2022-11-04T16:04:11.363Z,91.56
2022-11-04T16:06:28.651Z,91.79
2022-11-04T16:08:45.851Z,91.51
2022-11-04T16:11:03.186Z,92.34
2022-11-04T16:13:20.249Z,92.48
2022-11-04T16:15:37.145Z,92.55
2022-11-04T16:17:54.085Z,92.47
2022-11-04T16:20:11.314Z,92.55
2022-11-04T16:22:28.268Z,93.18
2022-11-04T16:24:45.227Z,92.32
2022-11-04T16:27:02.160Z,92.62
2022-11-04T16:29:19.111Z,92.77
2022-11-04T16:31:36.067Z,93.24
2022-11-04T16:33:53.384Z,94.15
2022-11-04T16:36:10.660Z,93.96
2022-11-04T16:38:27.771Z,93.64
2022-11-04T16:40:44.864Z,93.65
2022-11-04T16:43:01.810Z,93.93
2022-11-04T16:45:18.810Z,93.53
2022-11-04T16:47:35.697Z,93.18
2022-11-04T16:49:53.018Z,93.37
2022-11-04T16:52:09.988Z,93.20
2022-11-04T16:54:26.954Z,93.87
2022-11-04T16:56:44.024Z,93.87
2022-11-04T16:59:00.867Z,94.31
2022-11-04T17:01:18.204Z,93.71
2022-11-04T17:03:35.236Z,94.08
2022-11-04T17:05:52.257Z,93.41
2022-11-04T17:08:09.545Z,93.70
2022-11-04T17:10:26.513Z,93.74
2022-11-04T17:12:43.485Z,93.09
2022-11-04T17:15:00.575Z,94.10
2022-11-04T17:17:17.918Z,93.40
2022-11-04T17:19:35.126Z,93.46
2022-11-04T17:21:52.087Z,93.87
2022-11-04T17:24:09.032Z,94.62
2022-11-04T17:26:26.263Z,94.04
2022-11-04T17:28:43.162Z,94.54
2022-11-04T17:31:00.097Z,94.76
2022-11-04T17:33:18.417Z,94.85
2022-11-04T17:35:35.414Z,94.54
2022-11-04T17:37:52.545Z,95.40
2022-11-04T17:40:09.771Z,95.44
2022-11-04T17:42:27.681Z,95.00
2022-11-04T17:44:44.798Z,95.07
2022-11-04T17:47:01.814Z,95.07
2022-11-04T17:49:19.119Z,95.26
2022-11-04T17:51:37.048Z,94.75
2022-11-04T17:53:54.036Z,95.57
2022-11-04T17:56:11.910Z,95.42
2022-11-04T17:58:28.963Z,94.87
2022-11-04T18:00:46.001Z,95.28
2022-11-04T18:03:02.962Z,95.14
2022-11-04T18:05:20.278Z,96.01
2022-11-04T18:07:38.403Z,95.53
2022-11-04T18:09:55.449Z,96.08
2022-11-04T18:12:12.673Z,95.60
2022-11-04T18:14:29.774Z,95.71
2022-11-04T18:16:46.998Z,96.17
2022-11-04T18:19:03.958Z,95.54
2022-11-04T18:21:21.027Z,96.37
2022-11-04T18:23:38.249Z,95.62
2022-11-04T18:25:55.601Z,96.31
2022-11-04T18:28:12.639Z,95.59
2022-11-04T18:30:29.958Z,96.12
2022-11-04T18:32:46.928Z,96.24
2022-11-04T18:35:04.204Z,95.42
2022-11-04T18:37:21.127Z,96.41
2022-11-04T18:39:38.028Z,95.46
2022-11-04T18:41:55.045Z,95.56
2022-11-04T18:44:12.124Z,96.42
2022-11-04T18:46:29.251Z,96.21
2022-11-04T18:48:46.362Z,96.95
2022-11-04T18:51:03.427Z,95.81
2022-11-04T18:53:25.807Z,96.40
2022-11-04T18:55:44.968Z,96.22
2022-11-04T18:58:01.993Z,96.89
2022-11-04T19:00:18.901Z,96.85
2022-11-04T19:02:35.935Z,96.64
2022-11-04T19:04:52.975Z,96.74
2022-11-04T19:07:10.183Z,96.55
2022-11-04T19:12:04.085Z,96.48
2022-11-04T19:14:22.106Z,96.78
2022-11-04T19:16:39.335Z,96.03
2022-11-04T19:18:56.242Z,97.28
2022-11-04T19:21:13.222Z,97.33
2022-11-04T19:23:30.550Z,96.07
2022-11-04T19:25:47.469Z,96.40
2022-11-04T19:28:32.656Z,97.60
2022-11-04T19:30:42.606Z,97.17
2022-11-04T19:33:00.905Z,97.54
2022-11-04T19:35:17.830Z,96.55
2022-11-04T19:37:34.936Z,97.93
2022-11-04T19:39:51.950Z,96.71
2022-11-04T19:42:08.971Z,96.61
2022-11-04T19:44:26.301Z,97.03
2022-11-04T19:46:43.431Z,97.18
2022-11-04T19:49:00.493Z,97.22
2022-11-04T19:51:17.445Z,96.85
2022-11-04T19:53:34.648Z,98.18
2022-11-04T19:55:51.967Z,97.01
2022-11-04T19:58:09.436Z,97.35
2022-11-04T20:00:26.831Z,96.49
2022-11-04T20:02:44.211Z,96.40
2022-11-04T20:05:02.359Z,95.17
2022-11-04T20:07:19.598Z,96.01
2022-11-04T20:09:36.901Z,95.19
2022-11-04T20:11:53.849Z,96.46
2022-11-04T20:14:10.865Z,95.48
2022-11-04T20:16:28.146Z,95.77
2022-11-04T20:18:45.368Z,94.78
2022-11-04T20:21:02.601Z,94.70
2022-11-04T20:23:19.886Z,95.91
2022-11-04T20:25:36.953Z,95.28
2022-11-04T20:27:54.268Z,95.71
2022-11-04T20:30:11.459Z,96.03
2022-11-04T20:32:28.355Z,96.23
2022-11-04T20:34:45.672Z,95.78
2022-11-04T20:37:03.559Z,96.14
2022-11-04T20:39:20.534Z,95.83
2022-11-04T20:41:38.154Z,96.89
2022-11-04T20:43:55.110Z,96.49
2022-11-04T20:46:12.192Z,97.28
2022-11-04T20:48:30.136Z,97.44
2022-11-04T20:50:47.376Z,96.26
2022-11-04T20:53:04.321Z,96.34
2022-11-04T20:55:21.612Z,96.89
2022-11-04T20:57:38.636Z,96.24
2022-11-04T20:59:56.575Z,97.32
2022-11-04T21:02:13.648Z,97.32
2022-11-04T21:04:35.939Z,97.07
2022-11-04T21:06:53.472Z,96.24
2022-11-04T21:09:10.572Z,96.95
2022-11-04T21:11:31.517Z,97.17
2022-11-04T21:13:49.163Z,96.08
2022-11-04T21:16:06.591Z,97.44
2022-11-04T21:18:25.259Z,96.89
2022-11-04T21:20:42.488Z,96.36
2022-11-04T21:23:00.435Z,95.90
2022-11-04T21:25:18.410Z,97.01
2022-11-04T21:27:35.623Z,96.29
2022-11-04T21:29:52.653Z,96.30
2022-11-04T21:32:09.667Z,97.23
2022-11-04T21:34:26.711Z,96.84
2022-11-04T21:36:44.803Z,96.86
2022-11-04T21:39:02.162Z,96.07
2022-11-04T21:41:20.440Z,96.39
2022-11-04T21:43:37.549Z,97.40
2022-11-04T21:45:54.489Z,97.42
2022-11-04T21:48:11.664Z,97.13
2022-11-04T21:50:29.110Z,96.40
2022-11-04T21:52:46.247Z,95.99
2022-11-04T21:55:04.240Z,97.10
2022-11-04T21:57:21.333Z,96.83
2022-11-04T21:59:38.320Z,96.92
2022-11-04T22:01:56.933Z,96.18
2022-11-04T22:04:16.107Z,96.62
2022-11-04T22:06:35.087Z,96.13
2022-11-04T22:08:52.746Z,97.15
2022-11-04T22:11:10.099Z,97.27
2022-11-04T22:13:29.668Z,96.15
2022-11-04T22:15:47.223Z,95.98
2022-11-04T22:18:04.536Z,97.32
2022-11-04T22:20:21.602Z,96.51
2022-11-04T22:22:38.681Z,95.75
2022-11-04T22:24:56.023Z,96.37
2022-11-04T22:27:13.959Z,96.16
2022-11-04T22:29:31.933Z,97.39
2022-11-04T22:31:50.037Z,95.85
2022-11-04T22:34:07.003Z,97.42
2022-11-04T22:36:24.085Z,97.37
2022-11-04T22:38:42.188Z,95.81
2022-11-04T22:40:59.125Z,95.92
2022-11-04T22:43:16.123Z,97.01
2022-11-04T22:45:33.136Z,97.30
2022-11-04T22:47:50.489Z,97.33
2022-11-04T22:50:07.861Z,96.73
2022-11-04T22:52:26.011Z,96.62
2022-11-04T22:54:43.050Z,96.08
2022-11-04T22:57:00.145Z,96.25
2022-11-04T22:59:19.698Z,96.51
2022-11-04T23:01:36.871Z,96.35
2022-11-04T23:03:54.534Z,96.83
2022-11-04T23:06:11.626Z,97.33
2022-11-04T23:08:28.792Z,97.52
2022-11-04T23:10:45.845Z,97.41
2022-11-04T23:13:03.111Z,97.63
2022-11-04T23:15:21.522Z,97.65
2022-11-04T23:17:38.545Z,97.52
2022-11-04T23:19:55.610Z,97.20
2022-11-04T23:22:12.702Z,97.52
2022-11-04T23:24:29.758Z,97.71
2022-11-04T23:26:47.286Z,97.46
2022-11-04T23:29:06.840Z,97.82
2022-11-04T23:31:23.805Z,97.60
2022-11-04T23:33:41.876Z,96.52
2022-11-04T23:35:59.046Z,97.61
2022-11-04T23:38:19.389Z,97.16
2022-11-04T23:40:36.527Z,97.34
2022-11-04T23:42:53.476Z,97.89
2022-11-04T23:45:10.553Z,97.44
2022-11-04T23:47:33.055Z,97.06
2022-11-04T23:49:51.402Z,97.22
2022-11-04T23:52:08.483Z,97.27
2022-11-04T23:54:28.397Z,96.30
2022-11-04T23:56:45.336Z,97.29
2022-11-04T23:59:03.621Z,97.77
